createdAt,value
2023-01-10T00:04:28.100Z,273.88
2023-01-10T00:09:28.024Z,276.16
2023-01-10T00:14:27.946Z,275.24
2023-01-10T00:19:27.884Z,272.30
2023-01-10T00:24:27.817Z,270.75
2023-01-10T00:29:27.785Z,270.75
2023-01-10T00:34:27.652Z,269.87
2023-01-10T00:39:27.639Z,270.09
2023-01-10T00:44:27.532Z,268.12
2023-01-10T00:49:27.488Z,268.56
2023-01-10T00:54:27.382Z,267.26
2023-01-10T00:59:29.148Z,266.61
2023-01-10T01:04:27.244Z,264.49
2023-01-10T01:09:53.835Z,265.12
2023-01-10T01:14:46.071Z,265.97
2023-01-10T01:19:45.993Z,266.61
2023-01-10T01:24:45.931Z,269.21
2023-01-10T01:29:45.869Z,269.43
2023-01-10T01:34:45.799Z,268.56
2023-01-10T01:39:45.700Z,268.99
2023-01-10T01:44:45.659Z,269.21
2023-01-10T01:49:45.583Z,266.83
2023-01-10T01:54:45.544Z,269.65
2023-01-10T01:59:45.447Z,271.19
2023-01-10T02:04:45.399Z,269.87
2023-01-10T02:09:45.313Z,272.08
2023-01-10T02:14:45.264Z,275.47
2023-01-10T02:19:45.202Z,278.01
2023-01-10T02:24:45.127Z,276.39
2023-01-10T02:29:45.029Z,277.08
2023-01-10T02:34:45.014Z,279.65
2023-01-10T02:39:44.900Z,282.02
2023-01-10T02:44:44.858Z,283.95
2023-01-10T02:49:44.795Z,284.44
2023-01-10T02:54:44.709Z,284.44
2023-01-10T02:59:44.648Z,280.59
2023-01-10T03:04:44.624Z,279.65
2023-01-10T03:09:44.524Z,277.08
2023-01-10T03:14:44.465Z,276.16
2023-01-10T03:19:44.393Z,276.85
2023-01-10T03:24:44.329Z,277.31
2023-01-10T03:29:44.232Z,277.08
2023-01-10T03:34:44.197Z,276.85
2023-01-10T03:39:44.113Z,274.33
2023-01-10T03:44:44.078Z,274.33
2023-01-10T03:49:43.990Z,272.53
2023-01-10T03:54:43.919Z,272.08
2023-01-10T03:59:43.847Z,272.30
2023-01-10T04:04:43.797Z,272.53
2023-01-10T04:09:43.693Z,272.98
2023-01-10T04:14:43.644Z,272.98
2023-01-10T04:19:43.570Z,272.08
2023-01-10T04:24:43.515Z,271.64
2023-01-10T04:29:43.434Z,272.98
2023-01-10T04:34:43.398Z,272.53
2023-01-10T04:39:43.291Z,270.97
2023-01-10T04:44:43.255Z,272.53
2023-01-10T04:49:43.179Z,272.75
2023-01-10T04:54:43.113Z,273.88
2023-01-10T04:59:43.029Z,273.20
2023-01-10T05:04:42.990Z,277.08
2023-01-10T05:09:42.913Z,278.01
2023-01-10T05:14:42.856Z,278.47
2023-01-10T05:19:57.388Z,278.47
2023-01-10T05:24:49.775Z,278.24
2023-01-10T05:29:49.749Z,278.01
2023-01-10T05:34:49.671Z,278.47
2023-01-10T05:39:49.607Z,278.94
2023-01-10T05:44:49.515Z,278.94
2023-01-10T05:49:49.504Z,281.31
2023-01-10T05:54:49.378Z,282.26
2023-01-10T05:59:49.339Z,281.31
2023-01-10T06:04:49.265Z,281.31
2023-01-10T06:09:49.209Z,283.95
2023-01-10T06:14:49.123Z,287.15
2023-01-10T06:19:49.089Z,289.91
2023-01-10T06:24:48.987Z,290.42
2023-01-10T06:29:48.934Z,292.72
2023-01-10T06:34:48.864Z,293.76
2023-01-10T06:39:48.797Z,292.98
2023-01-10T06:44:48.815Z,290.16
2023-01-10T06:49:48.660Z,289.91
2023-01-10T06:54:48.612Z,290.93
2023-01-10T06:59:48.552Z,292.46
2023-01-10T07:04:48.493Z,296.12
2023-01-10T07:09:48.415Z,295.86
2023-01-10T07:14:48.327Z,292.21
2023-01-10T07:19:48.270Z,297.71
2023-01-10T07:24:48.229Z,295.33
2023-01-10T07:29:48.151Z,295.33
2023-01-10T07:34:48.057Z,299.60
2023-01-10T07:39:48.022Z,298.52
2023-01-10T07:44:49.471Z,301.23
2023-01-10T07:49:47.892Z,300.68
2023-01-10T07:54:47.813Z,301.77
2023-01-10T07:59:47.761Z,303.15
2023-01-10T08:04:47.672Z,302.33
2023-01-10T08:09:47.639Z,299.87
2023-01-10T08:14:47.564Z,299.05
2023-01-10T08:19:47.503Z,299.60
2023-01-10T08:24:47.407Z,302.88
2023-01-10T08:29:47.366Z,302.60
2023-01-10T08:34:47.245Z,304.55
2023-01-10T08:39:47.234Z,301.77
2023-01-10T08:44:47.138Z,302.05
2023-01-10T08:49:47.068Z,297.71
2023-01-10T08:54:47.005Z,296.91
2023-01-10T08:59:46.948Z,295.59
2023-01-10T09:04:46.844Z,294.28
2023-01-10T09:09:46.812Z,289.15
2023-01-10T09:14:46.753Z,286.16
2023-01-10T09:19:46.679Z,282.02
2023-01-10T09:24:46.607Z,276.39
2023-01-10T09:29:46.554Z,264.91
2023-01-10T09:34:46.452Z,264.91
2023-01-10T09:39:46.411Z,258.11
2023-01-10T09:44:46.342Z,254.74
2023-01-10T09:49:46.255Z,251.46
2023-01-10T09:54:46.188Z,247.34
2023-01-10T09:59:46.138Z,244.42
2023-01-10T10:04:46.065Z,241.05
2023-01-10T10:09:46.014Z,235.40
2023-01-10T10:14:45.917Z,230.02
2023-01-10T10:19:45.874Z,230.18
2023-01-10T10:24:45.793Z,237.09
2023-01-10T10:29:45.741Z,242.28
2023-01-10T10:34:45.646Z,246.24
2023-01-10T10:39:45.583Z,254.35
2023-01-10T10:44:45.526Z,257.11
2023-01-10T10:49:45.498Z,265.55
2023-01-10T10:54:47.633Z,279.41
2023-01-10T10:59:45.356Z,287.65
2023-01-10T11:04:45.275Z,295.86
2023-01-10T11:09:45.188Z,299.05
2023-01-10T11:14:45.124Z,309.66
2023-01-10T11:19:45.043Z,316.45
2023-01-10T11:24:44.990Z,321.05
2023-01-10T11:29:44.918Z,323.55
2023-01-10T11:34:44.839Z,329.99
2023-01-10T11:39:44.775Z,335.32
2023-01-10T11:44:44.702Z,333.64
2023-01-10T11:49:44.657Z,332.63
2023-01-10T11:54:44.597Z,341.54
2023-01-10T11:59:44.520Z,343.30
2023-01-10T12:04:44.433Z,341.54
2023-01-10T12:09:44.444Z,342.24
2023-01-10T12:14:44.352Z,338.40
2023-01-10T12:19:44.260Z,337.03
2023-01-10T12:24:44.267Z,345.09
2023-01-10T12:29:44.147Z,350.56
2023-01-10T12:34:44.064Z,356.20
2023-01-10T12:39:43.981Z,354.68
2023-01-10T12:44:43.930Z,354.68
2023-01-10T12:49:43.867Z,352.05
2023-01-10T12:54:43.739Z,347.26
2023-01-10T12:59:43.719Z,352.42
2023-01-10T13:04:43.649Z,362.43
2023-01-10T13:09:43.548Z,362.43
2023-01-10T13:14:43.545Z,359.29
2023-01-10T13:19:43.477Z,358.12
2023-01-10T13:24:43.398Z,357.35
2023-01-10T13:29:43.282Z,358.90
2023-01-10T13:34:43.260Z,358.12
2023-01-10T13:39:43.165Z,360.07
2023-01-10T13:44:43.091Z,366.83
2023-01-10T13:49:43.048Z,368.05
2023-01-10T13:54:42.990Z,377.14
2023-01-10T13:59:42.926Z,375.98
2023-01-10T14:04:42.907Z,380.97
2023-01-10T14:09:42.773Z,381.40
2023-01-10T14:14:42.709Z,384.67
2023-01-10T14:19:42.636Z,388.44
2023-01-10T14:24:42.579Z,391.82
2023-01-10T14:29:42.493Z,392.73
2023-01-10T14:34:42.448Z,387.32
2023-01-10T14:39:42.449Z,378.41
2023-01-10T14:44:43.106Z,368.46
2023-01-10T14:49:42.268Z,360.46
2023-01-10T14:54:42.181Z,360.85
2023-01-10T14:59:42.076Z,356.97
2023-01-10T15:04:42.080Z,356.58
2023-01-10T15:09:42.017Z,350.93
2023-01-10T15:14:41.916Z,352.05
2023-01-10T15:19:41.822Z,350.19
2023-01-10T15:24:41.796Z,349.08
2023-01-10T15:29:43.699Z,349.82
2023-01-10T15:34:41.667Z,354.68
2023-01-10T15:39:41.586Z,358.12
2023-01-10T15:44:41.498Z,364.42
2023-01-10T15:49:41.440Z,370.11
2023-01-10T15:54:41.368Z,387.10
2023-01-10T15:59:41.289Z,387.99
2023-01-10T16:04:41.267Z,388.44
2023-01-10T16:09:41.225Z,389.78
2023-01-10T16:14:41.172Z,387.77
2023-01-10T16:19:41.039Z,385.99
2023-01-10T16:24:40.985Z,384.23
2023-01-10T16:29:40.895Z,380.54
2023-01-10T16:34:40.866Z,375.98
2023-01-10T16:39:40.739Z,375.98
2023-01-10T16:44:40.716Z,373.86
2023-01-10T16:49:40.637Z,371.35
2023-01-10T16:54:40.584Z,374.28
2023-01-10T16:59:40.496Z,373.02
2023-01-10T17:04:40.467Z,373.86
2023-01-10T17:09:40.377Z,375.55
2023-01-10T17:14:40.333Z,383.36
2023-01-10T17:19:40.240Z,384.67
2023-01-10T17:24:40.142Z,383.58
2023-01-10T17:29:40.128Z,382.70
2023-01-10T17:34:40.075Z,380.33
2023-01-10T17:39:40.001Z,379.90
2023-01-10T17:44:39.926Z,380.11
2023-01-10T17:49:39.817Z,379.69
2023-01-10T17:54:39.745Z,375.98
2023-01-10T17:59:39.689Z,371.35
2023-01-10T18:04:39.633Z,369.70
2023-01-10T18:09:39.582Z,369.28
2023-01-10T18:14:39.496Z,370.52
2023-01-10T18:19:39.411Z,367.24
2023-01-10T18:24:39.403Z,366.43
2023-01-10T18:29:39.288Z,363.22
2023-01-10T18:34:39.247Z,361.64
2023-01-10T18:39:39.200Z,358.12
2023-01-10T18:44:39.129Z,355.82
2023-01-10T18:49:39.082Z,355.44
2023-01-10T18:54:38.953Z,354.68
2023-01-10T18:59:38.883Z,353.92
2023-01-10T19:04:38.869Z,354.68
2023-01-10T19:09:38.760Z,353.55
2023-01-10T19:14:38.752Z,350.19
2023-01-10T19:19:38.691Z,348.35
2023-01-10T19:24:38.572Z,349.82
2023-01-10T19:29:38.500Z,352.42
2023-01-10T19:34:39.274Z,350.56
2023-01-10T19:39:38.360Z,349.82
2023-01-10T19:44:38.299Z,352.79
2023-01-10T19:49:38.262Z,360.46
2023-01-10T19:54:38.166Z,360.85
2023-01-10T19:59:38.083Z,356.20
2023-01-10T20:04:38.025Z,352.79
2023-01-10T20:09:37.964Z,355.82
2023-01-10T20:14:37.908Z,356.97
2023-01-10T20:19:37.855Z,356.97
2023-01-10T20:24:37.766Z,357.35
2023-01-10T20:29:37.676Z,364.02
2023-01-10T20:34:37.665Z,364.42
2023-01-10T20:39:37.554Z,362.82
2023-01-10T20:44:37.521Z,368.05
2023-01-10T20:49:38.385Z,364.82
2023-01-10T20:54:37.350Z,366.43
2023-01-10T20:59:37.296Z,363.62
2023-01-10T21:04:37.230Z,360.46
2023-01-10T21:09:37.183Z,364.82
2023-01-10T21:14:37.125Z,366.83
2023-01-10T21:19:37.019Z,366.43
2023-01-10T21:24:36.988Z,366.83
2023-01-10T21:29:36.943Z,367.65
2023-01-10T21:34:36.837Z,369.28
2023-01-10T21:39:36.746Z,367.65
2023-01-10T21:44:36.693Z,363.62
2023-01-10T21:49:36.614Z,360.85
2023-01-10T21:54:36.568Z,354.68
2023-01-10T21:59:36.521Z,352.42
2023-01-10T22:04:36.442Z,352.42
2023-01-10T22:09:36.353Z,352.79
2023-01-10T22:14:36.312Z,355.06
2023-01-10T22:19:36.221Z,353.17
2023-01-10T22:24:36.219Z,348.35
2023-01-10T22:29:36.086Z,345.09
2023-01-10T22:34:36.035Z,343.30
2023-01-10T22:39:36.021Z,346.89
2023-01-10T22:44:35.910Z,353.17
2023-01-10T22:49:35.823Z,353.55
2023-01-10T22:54:35.758Z,352.79
2023-01-10T22:59:35.751Z,356.20
2023-01-10T23:04:35.614Z,351.67
2023-01-10T23:09:35.549Z,352.42
2023-01-10T23:14:35.498Z,350.93
2023-01-10T23:19:35.396Z,349.08
2023-01-10T23:24:35.366Z,345.81
2023-01-10T23:29:35.294Z,344.37
2023-01-10T23:34:35.234Z,342.95
2023-01-10T23:39:35.162Z,344.37
2023-01-10T23:44:35.081Z,336.34
2023-01-10T23:49:35.006Z,338.75
2023-01-10T23:54:34.960Z,334.31
2023-01-10T23:59:34.884Z,334.65
